Normans Crossing, Texas
Current Conditions -  °F | °C
As of 9:58 PM on Saturday 24 Jan 2015 (Local Time) from KGRK Reporting Station
Clear Clear  
Wind Chill: 51°   Ceiling: Unl
Heat Index: 51°   Visibility: 10mi
Dew Point: 36°   Wind: 6mph
Humidity: 55%   Direction: 270°W
Pressure: 30.06"   Gusts: NA
Location:  30.5793°N, 97.5096°W
Report Text: KGRK 250358Z AUTO 27005KT 10SM CLR 11/02 A3006 RMK AO2 SLP181 T01070020
Loading
Personal Weather Stations






























Interactive Weather Map New forecast layout! Learn more

10-Day Weather Forecast

Advertisements
Track Severe Weather on mobile